Time;durP1;ratioP1;P1;durP2;ratioP2;P2;SDS_P1;SDS_P2;PMS_P1;PMS_P2;Temp;Humidity;BMP_temperature;BMP_pressure;BME280_temperature;BME280_humidity;BME280_pressure;Samples;Min_cycle;Max_cycle;Signal;HPM_P1;HPM_P2
2023/05/29 00:01:55;;;;;;;0.50;0.40;;;13.60;99.90;;;;;;5062730;28;20976;-81
2023/05/29 00:04:22;;;;;;;0.50;0.40;;;13.50;99.90;;;;;;5063473;28;20540;-81
2023/05/29 00:06:50;;;;;;;0.50;0.40;;;13.50;99.90;;;;;;5067068;28;20440;-81
2023/05/29 00:09:17;;;;;;;0.50;0.40;;;13.50;99.90;;;;;;5066633;28;20527;-81
2023/05/29 00:11:46;;;;;;;2.67;1.37;;;13.50;99.90;;;;;;5057989;28;20472;-83
2023/05/29 00:14:15;;;;;;;0.50;0.50;;;13.50;99.90;;;;;;5066671;28;20520;-82
2023/05/29 00:16:43;;;;;;;0.50;0.40;;;13.40;99.90;;;;;;5062626;28;20841;-81
2023/05/29 00:19:10;;;;;;;2.23;2.03;;;13.40;99.90;;;;;;5062616;28;20456;-81
2023/05/29 00:21:37;;;;;;;0.50;0.40;;;13.30;99.90;;;;;;5064884;28;20449;-81
2023/05/29 00:24:04;;;;;;;1.02;1.02;;;13.40;99.90;;;;;;5065974;28;20664;-82
2023/05/29 00:26:31;;;;;;;0.50;0.40;;;13.20;99.90;;;;;;5064502;28;20194;-81
2023/05/29 00:28:58;;;;;;;0.50;0.40;;;13.20;99.90;;;;;;5062024;28;20282;-81
2023/05/29 00:31:27;;;;;;;0.50;0.40;;;13.20;99.90;;;;;;5063365;28;20441;-81
2023/05/29 00:33:54;;;;;;;0.50;0.40;;;13.20;99.90;;;;;;5065784;28;20479;-80
2023/05/29 00:36:21;;;;;;;0.50;0.40;;;13.20;99.90;;;;;;5065561;28;20539;-79
2023/05/29 00:38:48;;;;;;;0.82;0.82;;;13.20;99.90;;;;;;5062169;28;20937;-81
2023/05/29 00:41:16;;;;;;;0.50;0.40;;;13.10;99.90;;;;;;5062136;28;20208;-82
2023/05/29 00:43:43;;;;;;;0.53;0.53;;;13.10;99.90;;;;;;5065078;28;20452;-82
2023/05/29 00:46:12;;;;;;;0.50;0.40;;;13.10;99.90;;;;;;5065821;28;20433;-81
2023/05/29 00:48:41;;;;;;;0.50;0.40;;;13.10;99.90;;;;;;5063621;28;20451;-81
2023/05/29 00:51:08;;;;;;;0.50;0.40;;;13.10;99.90;;;;;;5062212;28;20449;-82
2023/05/29 00:53:36;;;;;;;0.50;0.40;;;13.00;99.90;;;;;;5064416;28;20198;-82
2023/05/29 00:56:04;;;;;;;0.50;0.40;;;13.00;99.90;;;;;;5065337;28;20440;-80
2023/05/29 00:58:31;;;;;;;0.50;0.40;;;12.90;99.90;;;;;;5064312;28;20448;-81
2023/05/29 01:00:58;;;;;;;0.50;0.40;;;12.90;99.90;;;;;;5111499;22;20256;-79
2023/05/29 01:03:26;;;;;;;0.50;0.40;;;12.90;99.90;;;;;;5043887;28;20444;-79
2023/05/29 01:05:54;;;;;;;3.25;3.05;;;12.90;99.90;;;;;;5066753;28;20436;-79
2023/05/29 01:08:21;;;;;;;0.50;0.40;;;12.80;99.90;;;;;;5066951;28;20198;-79
2023/05/29 01:10:50;;;;;;;0.50;0.40;;;12.70;99.90;;;;;;5057509;28;20297;-79
2023/05/29 01:13:22;;;;;;;0.60;0.60;;;12.70;99.90;;;;;;5065398;28;20237;-79
2023/05/29 01:15:55;;;;;;;0.50;0.40;;;12.60;99.90;;;;;;5059851;28;20201;-79
2023/05/29 01:18:35;;;;;;;1.17;1.08;;;12.60;99.90;;;;;;5067540;28;20485;-79
2023/05/29 01:21:10;;;;;;;0.50;0.50;;;12.60;99.90;;;;;;5061257;28;20218;-79
2023/05/29 01:23:59;;;;;;;0.50;0.50;;;12.50;99.90;;;;;;5068959;28;20209;-79
2023/05/29 01:26:51;;;;;;;0.50;0.40;;;12.40;99.90;;;;;;5070403;28;20452;-80
2023/05/29 01:29:20;;;;;;;0.70;0.70;;;12.40;99.90;;;;;;5070325;28;20468;-79
2023/05/29 01:31:49;;;;;;;0.50;0.40;;;12.20;99.90;;;;;;5066796;28;20464;-80
2023/05/29 01:34:15;;;;;;;0.50;0.40;;;12.20;99.90;;;;;;5066846;28;20241;-80
2023/05/29 01:36:42;;;;;;;0.50;0.40;;;12.10;99.90;;;;;;5074883;28;20221;-80
2023/05/29 01:39:10;;;;;;;1.02;0.93;;;12.10;99.90;;;;;;5067223;28;20199;-80
2023/05/29 01:41:37;;;;;;;0.50;0.40;;;12.00;99.90;;;;;;5067676;28;20227;-80
2023/05/29 01:44:09;;;;;;;0.50;0.40;;;11.90;99.90;;;;;;5073479;28;20469;-79
2023/05/29 01:46:38;;;;;;;0.50;0.50;;;11.80;99.90;;;;;;5080580;28;20245;-80
2023/05/29 01:49:05;;;;;;;0.50;0.40;;;11.70;99.90;;;;;;5074032;28;20277;-79
2023/05/29 01:51:33;;;;;;;0.50;0.40;;;11.70;99.90;;;;;;5079022;28;20222;-79
2023/05/29 01:54:00;;;;;;;0.50;0.40;;;11.70;99.90;;;;;;5077927;28;20229;-79
2023/05/29 01:56:28;;;;;;;0.88;0.60;;;11.60;99.90;;;;;;5068925;28;20262;-79
2023/05/29 01:58:56;;;;;;;1.25;1.15;;;11.60;99.90;;;;;;5069661;28;20200;-79
2023/05/29 02:01:25;;;;;;;0.50;0.40;;;11.50;99.90;;;;;;5069565;28;20240;-79
2023/05/29 02:03:52;;;;;;;0.50;0.50;;;11.50;99.90;;;;;;5058418;28;20205;-80
2023/05/29 02:06:19;;;;;;;0.50;0.40;;;11.50;99.90;;;;;;5066612;28;20198;-79
2023/05/29 02:08:46;;;;;;;0.50;0.40;;;11.50;99.90;;;;;;5068762;28;20282;-79
2023/05/29 02:11:13;;;;;;;0.50;0.40;;;11.40;99.90;;;;;;5069745;28;20311;-78
2023/05/29 02:13:39;;;;;;;0.60;0.60;;;11.30;99.90;;;;;;5067737;28;20662;-77
2023/05/29 02:16:06;;;;;;;0.80;0.80;;;11.30;99.90;;;;;;5066111;28;20714;-79
2023/05/29 02:18:35;;;;;;;0.50;0.40;;;11.20;99.90;;;;;;5066611;28;20306;-79
2023/05/29 02:21:02;;;;;;;0.50;0.40;;;11.10;99.90;;;;;;5069963;28;20569;-79
2023/05/29 02:23:29;;;;;;;0.50;0.40;;;11.10;99.90;;;;;;5068775;28;20576;-79
2023/05/29 02:25:56;;;;;;;0.50;0.40;;;11.10;99.90;;;;;;5065499;28;20190;-79
2023/05/29 02:28:23;;;;;;;0.75;0.75;;;11.10;99.90;;;;;;5065937;28;20282;-78
2023/05/29 02:30:50;;;;;;;0.50;0.40;;;11.10;99.90;;;;;;5070050;28;20300;-79
2023/05/29 02:33:16;;;;;;;0.50;0.40;;;11.10;99.90;;;;;;5070393;28;20208;-79
2023/05/29 02:35:45;;;;;;;0.50;0.40;;;11.00;99.90;;;;;;5067800;28;20261;-79
2023/05/29 02:38:11;;;;;;;0.50;0.40;;;11.00;99.90;;;;;;5067605;28;20299;-79
2023/05/29 02:40:38;;;;;;;0.50;0.40;;;11.00;99.90;;;;;;5068547;28;20313;-78
2023/05/29 02:43:06;;;;;;;0.50;0.40;;;11.10;99.90;;;;;;5071196;28;20277;-78
2023/05/29 02:45:33;;;;;;;1.13;0.70;;;11.10;99.90;;;;;;5061572;28;20199;-79
2023/05/29 02:48:00;;;;;;;0.50;0.40;;;11.00;99.90;;;;;;5070887;28;20225;-78
2023/05/29 02:50:27;;;;;;;0.50;0.40;;;11.00;99.90;;;;;;5068282;28;20793;-79
2023/05/29 02:52:55;;;;;;;0.50;0.40;;;10.90;99.90;;;;;;5057026;28;20613;-79
2023/05/29 02:55:22;;;;;;;0.50;0.40;;;11.00;99.90;;;;;;5065163;28;20304;-79
2023/05/29 02:57:52;;;;;;;0.50;0.40;;;10.90;99.90;;;;;;5067234;28;20249;-79
2023/05/29 03:00:20;;;;;;;0.50;0.40;;;10.90;99.90;;;;;;5068253;28;20197;-79
2023/05/29 03:02:47;;;;;;;8.98;2.05;;;10.90;99.90;;;;;;5066601;28;20198;-79
2023/05/29 03:05:14;;;;;;;0.50;0.40;;;10.90;99.90;;;;;;5065024;28;20230;-79
2023/05/29 03:07:41;;;;;;;0.50;0.40;;;10.80;99.90;;;;;;5066577;28;20599;-79
2023/05/29 03:10:10;;;;;;;0.50;0.40;;;10.80;99.90;;;;;;5069044;28;20201;-79
2023/05/29 03:12:37;;;;;;;0.50;0.50;;;10.80;99.90;;;;;;5067231;28;20201;-80
2023/05/29 03:15:05;;;;;;;0.80;0.70;;;10.80;99.90;;;;;;5065255;28;20447;-79
2023/05/29 03:17:32;;;;;;;0.50;0.40;;;10.80;99.90;;;;;;5065231;28;20218;-78
2023/05/29 03:19:58;;;;;;;0.50;0.40;;;10.70;99.90;;;;;;5067774;28;20222;-79
2023/05/29 03:22:25;;;;;;;0.50;0.40;;;10.70;99.90;;;;;;5067308;28;20300;-79
2023/05/29 03:24:52;;;;;;;0.60;0.60;;;10.60;99.90;;;;;;5063755;28;20191;-79
2023/05/29 03:27:20;;;;;;;0.52;0.47;;;10.50;99.90;;;;;;5064376;28;20199;-79
2023/05/29 03:29:47;;;;;;;0.50;0.40;;;10.50;99.90;;;;;;5065678;28;20198;-79
2023/05/29 03:32:14;;;;;;;0.50;0.40;;;10.60;99.90;;;;;;5066652;28;20256;-79
2023/05/29 03:34:41;;;;;;;0.50;0.40;;;10.60;99.90;;;;;;5065830;28;20197;-79
2023/05/29 03:37:07;;;;;;;0.50;0.40;;;10.60;99.90;;;;;;5063818;28;20249;-79
2023/05/29 03:39:34;;;;;;;0.50;0.40;;;10.60;99.90;;;;;;5063457;28;20208;-79
2023/05/29 03:42:02;;;;;;;0.50;0.40;;;10.60;99.90;;;;;;5067257;28;20331;-79
2023/05/29 03:44:30;;;;;;;0.60;0.40;;;10.50;99.90;;;;;;5067243;28;20225;-79
2023/05/29 03:46:57;;;;;;;0.50;0.40;;;10.40;99.90;;;;;;5066728;28;20201;-79
2023/05/29 03:49:24;;;;;;;0.50;0.40;;;10.30;99.90;;;;;;5066625;28;20296;-78
2023/05/29 03:51:51;;;;;;;0.50;0.40;;;10.40;99.90;;;;;;5067135;28;20214;-79
2023/05/29 03:54:18;;;;;;;0.50;0.40;;;10.40;99.90;;;;;;5066501;28;20193;-79
2023/05/29 03:56:45;;;;;;;0.50;0.40;;;10.30;99.90;;;;;;5066311;28;20197;-79
2023/05/29 03:59:12;;;;;;;0.50;0.40;;;10.20;99.90;;;;;;5066285;28;20226;-79
2023/05/29 04:01:40;;;;;;;0.50;0.40;;;10.30;99.90;;;;;;5065349;28;20458;-79
2023/05/29 04:04:07;;;;;;;0.50;0.40;;;10.30;99.90;;;;;;5063070;28;20286;-79
2023/05/29 04:06:38;;;;;;;0.50;0.40;;;10.30;99.90;;;;;;5062942;28;20203;-78
2023/05/29 04:09:06;;;;;;;0.50;0.40;;;10.30;99.90;;;;;;5063369;28;20197;-79
2023/05/29 04:11:34;;;;;;;0.50;0.40;;;10.30;99.90;;;;;;5063519;28;20250;-79
2023/05/29 04:14:01;;;;;;;0.50;0.40;;;10.40;99.90;;;;;;5054924;28;20202;-78
2023/05/29 04:16:28;;;;;;;0.50;0.40;;;10.30;99.90;;;;;;5063203;28;20209;-78
2023/05/29 04:18:56;;;;;;;7.10;0.75;;;10.30;99.90;;;;;;5065664;28;20244;-78
2023/05/29 04:21:23;;;;;;;0.70;0.60;;;10.30;99.90;;;;;;5066441;28;20218;-78
2023/05/29 04:23:50;;;;;;;0.93;0.85;;;10.30;99.90;;;;;;5063703;28;20238;-78
2023/05/29 04:26:17;;;;;;;0.50;0.40;;;10.40;99.90;;;;;;5060547;28;20285;-78
2023/05/29 04:28:44;;;;;;;0.73;0.73;;;10.50;99.90;;;;;;5064594;28;20630;-79
2023/05/29 04:31:14;;;;;;;3.63;3.33;;;10.50;99.90;;;;;;5062855;28;20239;-79
2023/05/29 04:33:41;;;;;;;0.50;0.40;;;10.60;99.90;;;;;;5063536;28;20225;-78
2023/05/29 04:36:10;;;;;;;0.50;0.40;;;10.70;99.90;;;;;;5066710;28;20257;-79
2023/05/29 04:38:37;;;;;;;0.50;0.40;;;10.70;99.90;;;;;;5065201;28;20256;-79
2023/05/29 04:41:04;;;;;;;0.50;0.40;;;10.70;99.90;;;;;;5062740;28;20214;-78
2023/05/29 04:43:31;;;;;;;0.50;0.40;;;10.70;99.90;;;;;;5063020;28;20198;-79
2023/05/29 04:45:59;;;;;;;0.50;0.40;;;10.80;99.90;;;;;;5065742;28;20259;-79
2023/05/29 04:48:26;;;;;;;2.47;0.57;;;10.70;99.90;;;;;;5064629;28;20653;-78
2023/05/29 04:50:53;;;;;;;0.50;0.40;;;10.70;99.90;;;;;;5063570;28;20213;-79
2023/05/29 04:53:23;;;;;;;0.50;0.40;;;10.80;99.90;;;;;;5062548;28;20213;-79
2023/05/29 04:55:50;;;;;;;0.50;0.40;;;10.80;99.90;;;;;;5063966;28;20633;-79
2023/05/29 04:58:17;;;;;;;0.50;0.40;;;10.80;99.90;;;;;;5066177;28;20218;-79
2023/05/29 05:00:44;;;;;;;0.50;0.40;;;10.90;99.90;;;;;;5064786;28;20336;-79
2023/05/29 05:03:11;;;;;;;0.50;0.40;;;11.00;99.90;;;;;;5062701;28;20195;-79
2023/05/29 05:05:38;;;;;;;0.50;0.40;;;11.10;99.90;;;;;;5061797;28;20203;-78
2023/05/29 05:08:05;;;;;;;1.88;1.77;;;11.10;99.90;;;;;;5066229;28;20214;-78
2023/05/29 05:10:33;;;;;;;1.67;1.67;;;11.10;99.90;;;;;;5058403;28;20218;-79
2023/05/29 05:13:02;;;;;;;3.72;1.83;;;11.10;99.90;;;;;;5064733;28;20194;-80
2023/05/29 05:15:29;;;;;;;0.50;0.40;;;11.20;99.90;;;;;;5065774;28;20208;-78
2023/05/29 05:17:56;;;;;;;0.50;0.40;;;11.30;99.90;;;;;;5062274;28;20222;-79
2023/05/29 05:20:22;;;;;;;0.80;0.80;;;11.30;99.90;;;;;;5063421;28;20225;-79
2023/05/29 05:22:49;;;;;;;1.50;0.63;;;11.40;99.90;;;;;;5074963;28;20207;-79
2023/05/29 05:25:16;;;;;;;0.50;0.40;;;11.30;99.90;;;;;;5073301;28;20732;-79
2023/05/29 05:27:44;;;;;;;0.50;0.40;;;11.40;99.90;;;;;;5069542;28;20269;-79
2023/05/29 05:30:12;;;;;;;0.50;0.40;;;11.60;99.90;;;;;;5069130;28;20264;-78
2023/05/29 05:32:39;;;;;;;1.88;1.23;;;11.60;99.90;;;;;;5071285;28;20293;-79
2023/05/29 05:35:07;;;;;;;10.07;4.10;;;11.70;99.90;;;;;;5069427;28;20237;-79
2023/05/29 05:37:34;;;;;;;0.50;0.40;;;11.80;99.90;;;;;;5064749;28;20197;-79
2023/05/29 05:40:01;;;;;;;1.75;1.05;;;11.90;99.90;;;;;;5061198;28;20194;-79
2023/05/29 05:42:28;;;;;;;1.25;1.15;;;12.00;99.90;;;;;;5061306;28;20203;-79
2023/05/29 05:44:56;;;;;;;0.50;0.40;;;12.20;99.90;;;;;;5062717;28;20241;-79
2023/05/29 05:47:23;;;;;;;0.50;0.40;;;12.30;99.90;;;;;;5064854;28;20198;-79
2023/05/29 05:49:51;;;;;;;0.50;0.40;;;12.50;99.90;;;;;;5063659;28;20535;-79
2023/05/29 05:52:18;;;;;;;0.50;0.40;;;12.70;99.90;;;;;;5061824;28;20254;-79
2023/05/29 05:54:44;;;;;;;0.60;0.60;;;12.80;99.90;;;;;;5061719;28;20238;-79
2023/05/29 05:57:12;;;;;;;0.60;0.60;;;12.90;99.90;;;;;;5065165;28;20448;-79
2023/05/29 05:59:39;;;;;;;0.50;0.40;;;13.10;99.90;;;;;;5068166;28;20520;-79
2023/05/29 06:02:07;;;;;;;2.05;1.95;;;13.20;99.90;;;;;;5052336;28;20472;-79
2023/05/29 06:04:34;;;;;;;0.50;0.40;;;13.30;99.90;;;;;;5068509;28;20292;-79
2023/05/29 06:07:00;;;;;;;0.50;0.40;;;13.40;99.90;;;;;;5066202;28;20448;-79
2023/05/29 06:09:27;;;;;;;0.70;0.50;;;13.60;99.90;;;;;;5065537;28;20447;-79
2023/05/29 06:11:54;;;;;;;0.50;0.40;;;13.80;99.90;;;;;;5066630;28;20987;-79
2023/05/29 06:14:21;;;;;;;0.60;0.40;;;14.30;99.90;;;;;;5068594;28;20834;-79
2023/05/29 06:16:48;;;;;;;0.50;0.40;;;14.80;99.90;;;;;;5067378;28;20536;-79
2023/05/29 06:19:16;;;;;;;0.50;0.40;;;15.40;99.90;;;;;;5064944;28;20570;-79
2023/05/29 06:21:43;;;;;;;1.07;1.07;;;16.00;99.90;;;;;;5065404;28;20499;-79
2023/05/29 06:24:10;;;;;;;8.40;0.70;;;16.40;99.90;;;;;;5068766;28;20536;-78
2023/05/29 06:26:37;;;;;;;0.50;0.40;;;16.70;99.90;;;;;;5068852;28;20447;-80
2023/05/29 06:29:06;;;;;;;0.90;0.90;;;16.90;99.90;;;;;;5065112;28;20429;-79
2023/05/29 06:31:33;;;;;;;3.07;2.87;;;17.40;99.90;;;;;;5064896;28;20500;-79
2023/05/29 06:34:00;;;;;;;0.50;0.50;;;18.30;99.90;;;;;;5067407;28;20829;-80
2023/05/29 06:36:28;;;;;;;0.50;0.30;;;19.30;99.90;;;;;;5067901;28;20447;-79
2023/05/29 06:38:55;;;;;;;0.50;0.50;;;20.30;99.90;;;;;;5066492;28;20562;-80
2023/05/29 06:41:22;;;;;;;0.50;0.30;;;21.30;95.60;;;;;;5064692;28;20468;-80
2023/05/29 06:43:49;;;;;;;0.60;0.40;;;22.00;93.20;;;;;;5065057;28;20445;-79
2023/05/29 06:46:16;;;;;;;0.60;0.40;;;22.30;86.60;;;;;;5068347;28;20448;-79
2023/05/29 06:48:43;;;;;;;0.60;0.50;;;22.40;83.80;;;;;;5067871;28;20497;-79
2023/05/29 06:51:11;;;;;;;0.50;0.30;;;22.60;81.40;;;;;;5064413;28;20464;-80
2023/05/29 06:53:40;;;;;;;0.60;0.60;;;23.10;81.50;;;;;;5064751;28;20480;-80
2023/05/29 06:56:07;;;;;;;1.80;1.70;;;23.50;78.80;;;;;;5067584;28;20512;-80
2023/05/29 06:58:34;;;;;;;0.50;0.30;;;24.20;78.80;;;;;;5067888;28;20472;-80
2023/05/29 07:01:01;;;;;;;0.50;0.30;;;24.20;73.20;;;;;;5065410;28;20472;-80
2023/05/29 07:03:28;;;;;;;0.50;0.30;;;23.90;75.50;;;;;;5064241;28;20472;-80
2023/05/29 07:05:56;;;;;;;0.50;0.33;;;24.40;72.10;;;;;;5065745;28;20472;-80
2023/05/29 07:08:23;;;;;;;0.67;0.60;;;24.40;73.00;;;;;;5067885;28;20803;-80
2023/05/29 07:10:52;;;;;;;0.50;0.30;;;25.20;71.60;;;;;;5066081;28;20839;-80
2023/05/29 07:13:19;;;;;;;0.50;0.30;;;25.40;69.10;;;;;;5064396;28;20528;-81
2023/05/29 07:15:46;;;;;;;0.50;0.40;;;25.50;70.80;;;;;;5063664;28;20544;-79
2023/05/29 07:18:12;;;;;;;0.50;0.30;;;26.00;66.90;;;;;;5067022;28;21007;-80
2023/05/29 07:20:39;;;;;;;0.60;0.50;;;25.70;64.30;;;;;;5068033;28;20468;-80
2023/05/29 07:23:06;;;;;;;0.50;0.30;;;25.60;64.70;;;;;;5064374;28;20460;-80
2023/05/29 07:25:33;;;;;;;0.50;0.30;;;25.80;65.50;;;;;;5064122;28;21016;-80
2023/05/29 07:28:01;;;;;;;0.80;0.43;;;26.30;66.10;;;;;;5066190;28;20856;-80
2023/05/29 07:30:28;;;;;;;0.50;0.30;;;26.90;63.50;;;;;;5066663;28;20460;-79
2023/05/29 07:32:55;;;;;;;0.80;0.80;;;26.80;63.50;;;;;;5065718;28;20524;-80
2023/05/29 07:35:22;;;;;;;0.50;0.30;;;27.30;63.60;;;;;;5060499;28;20519;-80
2023/05/29 07:37:51;;;;;;;0.50;0.30;;;27.20;61.00;;;;;;5066280;28;20947;-80
2023/05/29 07:40:18;;;;;;;0.50;0.40;;;27.80;61.10;;;;;;5066513;28;20472;-79
2023/05/29 07:42:45;;;;;;;0.50;0.40;;;27.90;59.30;;;;;;5067076;28;20465;-80
2023/05/29 07:45:13;;;;;;;0.60;0.60;;;27.80;59.40;;;;;;5055224;28;20540;-80
2023/05/29 07:47:40;;;;;;;0.50;0.30;;;28.30;59.00;;;;;;5063761;28;20515;-81
2023/05/29 07:50:07;;;;;;;0.60;0.50;;;28.80;58.60;;;;;;5065978;28;20550;-80
2023/05/29 07:52:34;;;;;;;0.50;0.30;;;28.80;58.30;;;;;;5067138;28;20447;-80
2023/05/29 07:55:01;;;;;;;0.50;0.30;;;28.50;57.70;;;;;;5065322;28;20482;-80
2023/05/29 07:57:28;;;;;;;0.50;0.30;;;28.70;59.00;;;;;;5068763;28;20444;-80
2023/05/29 07:59:55;;;;;;;0.60;0.37;;;29.20;56.90;;;;;;5065657;28;20498;-80
2023/05/29 08:02:23;;;;;;;0.50;0.30;;;29.40;55.50;;;;;;5063010;28;20555;-80
2023/05/29 08:04:50;;;;;;;0.50;0.50;;;28.90;57.90;;;;;;5063094;28;20963;-80
2023/05/29 08:07:17;;;;;;;0.50;0.30;;;29.10;55.30;;;;;;5067244;28;20535;-80
2023/05/29 08:09:44;;;;;;;0.50;0.30;;;28.70;56.20;;;;;;5066322;28;20444;-80
2023/05/29 08:12:11;;;;;;;2.20;2.10;;;28.60;56.30;;;;;;5063336;28;20499;-80
2023/05/29 08:14:37;;;;;;;0.50;0.30;;;29.00;56.70;;;;;;5062717;28;20954;-80
2023/05/29 08:17:05;;;;;;;0.50;0.40;;;28.70;56.00;;;;;;5065258;28;20445;-80
2023/05/29 08:19:33;;;;;;;0.57;0.47;;;28.50;56.20;;;;;;5066674;28;20476;-80
2023/05/29 08:22:00;;;;;;;0.50;0.30;;;28.50;57.00;;;;;;5063575;28;20491;-80
2023/05/29 08:24:27;;;;;;;0.77;0.77;;;27.90;56.80;;;;;;5062865;28;20495;-80
2023/05/29 08:26:54;;;;;;;0.70;0.50;;;27.20;56.80;;;;;;5063223;28;21006;-80
2023/05/29 08:29:21;;;;;;;0.50;0.30;;;27.50;57.60;;;;;;5066364;28;20454;-80
2023/05/29 08:31:48;;;;;;;0.50;0.30;;;27.70;56.30;;;;;;5066101;28;20535;-80
2023/05/29 08:34:15;;;;;;;0.50;0.40;;;27.50;56.70;;;;;;5057551;28;20523;-80
2023/05/29 08:36:45;;;;;;;0.50;0.30;;;27.30;57.30;;;;;;5066630;28;20867;-80
2023/05/29 08:39:11;;;;;;;0.50;0.40;;;27.10;58.30;;;;;;5062812;28;20566;-80
2023/05/29 08:41:45;;;;;;;0.50;0.40;;;27.10;58.70;;;;;;5062445;28;20576;-80
2023/05/29 08:44:15;;;;;;;0.70;0.60;;;27.70;58.90;;;;;;5065293;28;20455;-80
2023/05/29 08:46:42;;;;;;;0.50;0.30;;;27.80;57.50;;;;;;5066267;28;20812;-80
2023/05/29 08:49:11;;;;;;;0.50;0.40;;;28.10;57.00;;;;;;5062699;28;20927;-80
2023/05/29 08:51:46;;;;;;;0.50;0.40;;;28.30;58.10;;;;;;5061942;28;20464;-80
2023/05/29 08:54:15;;;;;;;0.60;0.53;;;28.40;57.40;;;;;;5065293;28;20522;-81
2023/05/29 08:56:42;;;;;;;0.50;0.30;;;28.20;55.60;;;;;;5065826;28;20447;-79
2023/05/29 08:59:10;;;;;;;0.50;0.30;;;27.20;57.40;;;;;;5062578;28;20472;-78
2023/05/29 09:01:39;;;;;;;0.50;0.40;;;27.40;58.20;;;;;;5061554;28;20982;-79
2023/05/29 09:04:05;;;;;;;0.50;0.30;;;27.10;57.90;;;;;;5063274;28;20487;-79
2023/05/29 09:06:33;;;;;;;0.50;0.30;;;27.70;59.10;;;;;;5065584;28;20479;-79
2023/05/29 09:09:01;;;;;;;0.50;0.30;;;28.60;58.20;;;;;;5063920;28;20531;-79
2023/05/29 09:11:28;;;;;;;0.50;0.30;;;28.80;56.00;;;;;;5062191;28;20519;-79
2023/05/29 09:13:57;;;;;;;0.50;0.30;;;28.60;57.40;;;;;;5061897;28;20447;-79
2023/05/29 09:16:24;;;;;;;2.00;0.60;;;29.30;56.30;;;;;;5065477;28;20808;-79
2023/05/29 09:18:50;;;;;;;0.50;0.30;;;29.70;54.90;;;;;;5065848;28;20812;-79
2023/05/29 09:21:27;;;;;;;0.50;0.40;;;29.70;55.30;;;;;;5053672;28;20543;-79
2023/05/29 09:23:55;;;;;;;1.43;1.33;;;29.90;54.80;;;;;;5061613;28;20531;-79
2023/05/29 09:26:23;;;;;;;0.50;0.30;;;29.90;53.80;;;;;;5064887;28;20458;-79
2023/05/29 09:28:50;;;;;;;0.50;0.30;;;30.50;54.90;;;;;;5065023;28;20457;-79
2023/05/29 09:31:19;;;;;;;0.50;0.30;;;30.20;54.00;;;;;;5065453;28;20464;-79
2023/05/29 09:33:51;;;;;;;0.50;0.30;;;30.30;56.40;;;;;;5067028;28;20569;-79
2023/05/29 09:36:22;;;;;;;0.50;0.30;;;30.40;53.20;;;;;;5066591;28;20978;-79
2023/05/29 09:38:48;;;;;;;0.50;0.30;;;30.30;53.60;;;;;;5065511;28;20449;-79
2023/05/29 09:41:23;;;;;;;7.10;0.83;;;30.10;54.50;;;;;;5068527;28;20913;-79
2023/05/29 09:43:50;;;;;;;0.60;0.40;;;29.50;53.30;;;;;;5068694;28;20972;-79
2023/05/29 09:46:18;;;;;;;0.50;0.40;;;29.00;54.90;;;;;;5065772;28;20509;-79
2023/05/29 09:48:47;;;;;;;0.50;0.30;;;28.70;53.90;;;;;;5065846;28;20438;-79
2023/05/29 09:51:21;;;;;;;0.60;0.60;;;28.90;56.60;;;;;;5068164;28;20537;-79
2023/05/29 09:53:50;;;;;;;0.50;0.30;;;29.70;56.60;;;;;;5069084;28;20455;-79
2023/05/29 09:56:18;;;;;;;0.50;0.30;;;30.00;55.70;;;;;;5065566;28;20958;-79
2023/05/29 09:58:47;;;;;;;0.50;0.30;;;30.20;55.50;;;;;;5065629;28;20488;-78
2023/05/29 10:01:15;;;;;;;2.63;2.43;;;30.20;54.40;;;;;;5067693;28;20534;-79
2023/05/29 10:03:43;;;;;;;0.80;0.80;;;30.50;53.20;;;;;;5068339;28;20451;-79
2023/05/29 10:06:13;;;;;;;0.50;0.47;;;30.80;52.90;;;;;;5066542;28;20471;-79
2023/05/29 10:08:47;;;;;;;1.43;0.60;;;30.90;52.70;;;;;;5065019;28;20984;-79
2023/05/29 10:11:16;;;;;;;0.50;0.30;;;31.40;53.10;;;;;;5064806;28;20888;-79
2023/05/29 10:13:48;;;;;;;1.27;0.97;;;31.30;51.50;;;;;;5064862;28;20482;-79
2023/05/29 10:16:20;;;;;;;0.50;0.30;;;31.40;53.30;;;;;;5067365;28;20449;-78
2023/05/29 10:18:54;;;;;;;0.50;0.30;;;31.50;51.30;;;;;;5068134;28;20440;-79
2023/05/29 10:21:22;;;;;;;0.50;0.30;;;31.40;51.30;;;;;;5056702;28;20496;-78
2023/05/29 10:23:51;;;;;;;0.50;0.40;;;31.20;52.60;;;;;;5065342;28;20460;-79
2023/05/29 10:26:22;;;;;;;0.50;0.30;;;31.40;52.90;;;;;;5067507;28;20494;-78
2023/05/29 10:28:58;;;;;;;0.70;0.70;;;31.80;53.50;;;;;;5067956;28;20444;-79
2023/05/29 10:31:34;;;;;;;0.50;0.30;;;32.20;51.10;;;;;;5057596;28;20464;-79
2023/05/29 10:34:15;;;;;;;0.50;0.30;;;31.80;49.90;;;;;;5064836;28;20941;-79
2023/05/29 10:36:48;;;;;;;0.50;0.30;;;31.70;51.00;;;;;;5067802;28;20444;-79
2023/05/29 10:39:15;;;;;;;0.50;0.30;;;31.90;51.40;;;;;;5065177;28;20448;-79
2023/05/29 10:41:41;;;;;;;0.50;0.30;;;32.00;52.30;;;;;;5064183;28;20465;-79
2023/05/29 10:44:41;;;;;;;0.50;0.30;;;31.60;50.40;;;;;;5065542;28;20531;-78
2023/05/29 10:47:12;;;;;;;0.50;0.30;;;31.50;52.70;;;;;;5065882;28;20448;-78
2023/05/29 10:49:39;;;;;;;0.50;0.30;;;31.50;50.80;;;;;;5064504;28;20812;-79
2023/05/29 10:52:09;;;;;;;0.50;0.30;;;30.90;51.60;;;;;;5064862;28;20512;-79
2023/05/29 10:54:52;;;;;;;0.50;0.30;;;31.20;50.90;;;;;;5067684;28;20440;-79
2023/05/29 10:57:21;;;;;;;0.50;0.30;;;31.50;51.50;;;;;;5064813;28;20537;-78
2023/05/29 10:59:48;;;;;;;0.50;0.30;;;31.70;52.10;;;;;;5064007;28;21026;-78
2023/05/29 11:02:23;;;;;;;0.47;0.30;;;31.90;51.80;;;;;;5066251;28;20897;-79
2023/05/29 11:05:18;;;;;;;0.50;0.30;;;31.40;51.40;;;;;;5067600;28;20882;-78
2023/05/29 11:07:53;;;;;;;0.50;0.30;;;31.30;50.80;;;;;;5059046;28;20480;-79
2023/05/29 11:10:45;;;;;;;0.50;0.40;;;30.70;51.60;;;;;;5067437;28;20435;-79
2023/05/29 11:13:25;;;;;;;0.67;0.67;;;30.00;50.70;;;;;;5064884;28;20443;-78
2023/05/29 11:16:15;;;;;;;0.50;0.30;;;29.80;52.20;;;;;;5063553;28;20437;-78
2023/05/29 11:18:45;;;;;;;0.50;0.30;;;30.10;53.50;;;;;;5058159;28;20448;-79
2023/05/29 11:21:32;;;;;;;0.70;0.50;;;30.60;53.10;;;;;;5063534;28;20556;-78
2023/05/29 11:24:02;;;;;;;0.93;0.90;;;30.00;52.90;;;;;;5063425;28;20456;-78
2023/05/29 11:26:30;;;;;;;0.50;0.30;;;30.10;54.20;;;;;;5067365;28;20455;-79
2023/05/29 11:28:59;;;;;;;0.50;0.30;;;30.00;53.40;;;;;;5067892;28;20450;-81
2023/05/29 11:31:27;;;;;;;0.50;0.30;;;30.00;53.30;;;;;;5057567;28;20552;-80
2023/05/29 11:33:59;;;;;;;0.50;0.30;;;29.50;52.20;;;;;;5065028;28;20508;-78
2023/05/29 11:36:27;;;;;;;4.30;0.70;;;29.40;54.00;;;;;;5057756;28;20452;-78
2023/05/29 11:38:54;;;;;;;37.10;10.13;;;30.00;54.30;;;;;;5069015;28;20443;-80
2023/05/29 11:41:21;;;;;;;0.50;0.30;;;30.30;53.30;;;;;;5069954;28;21018;-78
2023/05/29 11:43:58;;;;;;;0.50;0.40;;;30.40;51.50;;;;;;5071963;28;20625;-78
2023/05/29 11:46:26;;;;;;;0.50;0.30;;;30.20;51.50;;;;;;5066172;28;20452;-80
2023/05/29 11:48:54;;;;;;;3.60;3.40;;;30.50;52.30;;;;;;5063928;28;20449;-81
2023/05/29 11:51:21;;;;;;;0.50;0.30;;;30.70;52.60;;;;;;5066968;28;20551;-78
2023/05/29 11:53:52;;;;;;;0.50;0.30;;;30.40;51.40;;;;;;5067718;28;20475;-78
2023/05/29 11:56:20;;;;;;;0.50;0.30;;;29.90;53.10;;;;;;5064885;28;20440;-78
2023/05/29 11:58:48;;;;;;;2.10;0.60;;;29.90;52.70;;;;;;5064487;28;20446;-80
2023/05/29 12:01:19;;;;;;;1.17;0.73;;;30.20;51.90;;;;;;5065096;28;20481;-80
2023/05/29 12:03:45;;;;;;;0.50;0.30;;;30.00;52.50;;;;;;5067046;28;20444;-80
2023/05/29 12:06:14;;;;;;;4.80;3.20;;;29.80;54.50;;;;;;5066230;28;20552;-78
2023/05/29 12:08:41;;;;;;;1.33;0.50;;;30.10;51.60;;;;;;5064428;28;20445;-81
2023/05/29 12:11:08;;;;;;;0.50;0.30;;;29.10;51.70;;;;;;5063954;28;20897;-79
2023/05/29 12:13:35;;;;;;;0.50;0.30;;;28.80;53.30;;;;;;5066863;28;20527;-81
2023/05/29 12:16:05;;;;;;;0.50;0.30;;;28.80;54.50;;;;;;5066565;28;20519;-80
2023/05/29 12:18:33;;;;;;;0.60;0.60;;;29.30;54.10;;;;;;5055065;28;20537;-80
2023/05/29 12:21:01;;;;;;;0.50;0.30;;;29.50;53.00;;;;;;5062931;28;21015;-81
2023/05/29 12:23:30;;;;;;;0.50;0.30;;;29.60;52.30;;;;;;5054580;28;20532;-77
2023/05/29 12:25:57;;;;;;;0.50;0.30;;;29.70;54.30;;;;;;5062775;28;20433;-80
2023/05/29 12:28:24;;;;;;;0.50;0.30;;;29.30;53.40;;;;;;5065556;28;20501;-80
2023/05/29 12:30:51;;;;;;;0.50;0.30;;;29.70;54.50;;;;;;5066995;28;20463;-81
2023/05/29 12:33:28;;;;;;;0.50;0.30;;;30.40;54.00;;;;;;5065172;28;20440;-78
2023/05/29 12:36:01;;;;;;;0.50;0.30;;;30.60;53.10;;;;;;5065394;28;20441;-78
2023/05/29 12:38:30;;;;;;;0.50;0.30;;;30.50;53.30;;;;;;5067437;28;20523;-78
2023/05/29 12:40:57;;;;;;;0.50;0.30;;;30.10;51.00;;;;;;5067314;28;20480;-78
2023/05/29 12:43:24;;;;;;;3.60;1.53;;;30.10;53.20;;;;;;5064383;28;20431;-80
2023/05/29 12:45:56;;;;;;;0.50;0.30;;;29.90;52.60;;;;;;5063696;28;20539;-81
2023/05/29 12:48:28;;;;;;;0.50;0.30;;;29.80;53.20;;;;;;5066216;28;20448;-80
2023/05/29 12:50:55;;;;;;;0.50;0.30;;;29.40;52.80;;;;;;5067468;28;20464;-80
2023/05/29 12:53:22;;;;;;;6.43;1.00;;;29.20;52.40;;;;;;5065491;28;20448;-80